sensor_id;sensor_type;location;lat;lon;timestamp;pressure;altitude;pressure_sealevel;temperature
17142;BMP180;32805;53.556;9.944;2022-08-01T00:00:48;101006.00;;;18.20
17142;BMP180;32805;53.556;9.944;2022-08-01T00:03:16;101014.00;;;18.20
17142;BMP180;32805;53.556;9.944;2022-08-01T00:05:43;101010.00;;;18.20
17142;BMP180;32805;53.556;9.944;2022-08-01T00:08:11;101009.00;;;18.20
17142;BMP180;32805;53.556;9.944;2022-08-01T00:10:40;101004.00;;;18.20
17142;BMP180;32805;53.556;9.944;2022-08-01T00:13:08;101019.00;;;18.20
17142;BMP180;32805;53.556;9.944;2022-08-01T00:15:36;101005.00;;;18.20
17142;BMP180;32805;53.556;9.944;2022-08-01T00:18:04;101014.00;;;18.20
17142;BMP180;32805;53.556;9.944;2022-08-01T00:20:32;101011.00;;;18.20
17142;BMP180;32805;53.556;9.944;2022-08-01T00:23:02;101017.00;;;18.10
17142;BMP180;32805;53.556;9.944;2022-08-01T00:25:29;101006.00;;;18.10
17142;BMP180;32805;53.556;9.944;2022-08-01T00:28:01;101012.00;;;18.10
17142;BMP180;32805;53.556;9.944;2022-08-01T00:30:30;101003.00;;;18.10
17142;BMP180;32805;53.556;9.944;2022-08-01T00:32:58;101009.00;;;18.10
17142;BMP180;32805;53.556;9.944;2022-08-01T00:35:25;101007.00;;;18.10
17142;BMP180;32805;53.556;9.944;2022-08-01T00:37:53;101010.00;;;18.10
17142;BMP180;32805;53.556;9.944;2022-08-01T00:40:21;101009.00;;;18.10
17142;BMP180;32805;53.556;9.944;2022-08-01T00:42:49;101010.00;;;18.20
17142;BMP180;32805;53.556;9.944;2022-08-01T00:45:18;101012.00;;;18.10
17142;BMP180;32805;53.556;9.944;2022-08-01T00:47:46;101017.00;;;18.20
17142;BMP180;32805;53.556;9.944;2022-08-01T00:50:20;101011.00;;;18.20
17142;BMP180;32805;53.556;9.944;2022-08-01T00:52:50;101004.00;;;18.20
17142;BMP180;32805;53.556;9.944;2022-08-01T00:55:19;101002.00;;;18.20
17142;BMP180;32805;53.556;9.944;2022-08-01T00:57:47;101010.00;;;18.20
17142;BMP180;32805;53.556;9.944;2022-08-01T01:00:33;101013.00;;;18.20
17142;BMP180;32805;53.556;9.944;2022-08-01T01:03:21;101008.00;;;18.20
17142;BMP180;32805;53.556;9.944;2022-08-01T01:06:17;101007.00;;;18.20
17142;BMP180;32805;53.556;9.944;2022-08-01T01:11:45;101004.00;;;18.20
17142;BMP180;32805;53.556;9.944;2022-08-01T01:14:22;101001.00;;;18.20
17142;BMP180;32805;53.556;9.944;2022-08-01T01:16:53;101011.00;;;18.30
17142;BMP180;32805;53.556;9.944;2022-08-01T01:19:24;101017.00;;;18.30
17142;BMP180;32805;53.556;9.944;2022-08-01T01:22:18;101017.00;;;18.20
17142;BMP180;32805;53.556;9.944;2022-08-01T01:25:02;101019.00;;;18.20
17142;BMP180;32805;53.556;9.944;2022-08-01T01:27:50;101011.00;;;18.20
17142;BMP180;32805;53.556;9.944;2022-08-01T01:30:21;101014.00;;;18.00
17142;BMP180;32805;53.556;9.944;2022-08-01T01:32:51;101009.00;;;18.00
17142;BMP180;32805;53.556;9.944;2022-08-01T01:35:23;101006.00;;;17.90
17142;BMP180;32805;53.556;9.944;2022-08-01T01:37:56;101014.00;;;17.90
17142;BMP180;32805;53.556;9.944;2022-08-01T01:40:25;101014.00;;;17.80
17142;BMP180;32805;53.556;9.944;2022-08-01T01:42:55;101021.00;;;17.80
17142;BMP180;32805;53.556;9.944;2022-08-01T01:45:26;101019.00;;;17.80
17142;BMP180;32805;53.556;9.944;2022-08-01T01:47:54;101022.00;;;17.80
17142;BMP180;32805;53.556;9.944;2022-08-01T01:50:24;101020.00;;;17.70
17142;BMP180;32805;53.556;9.944;2022-08-01T01:52:53;101023.00;;;17.70
17142;BMP180;32805;53.556;9.944;2022-08-01T01:55:23;101015.00;;;17.80
17142;BMP180;32805;53.556;9.944;2022-08-01T01:57:54;101021.00;;;17.70
17142;BMP180;32805;53.556;9.944;2022-08-01T02:00:24;101039.00;;;17.70
17142;BMP180;32805;53.556;9.944;2022-08-01T02:02:53;101029.00;;;17.70
17142;BMP180;32805;53.556;9.944;2022-08-01T02:05:24;101033.00;;;17.70
17142;BMP180;32805;53.556;9.944;2022-08-01T02:07:53;101033.00;;;17.70
17142;BMP180;32805;53.556;9.944;2022-08-01T02:10:25;101032.00;;;17.70
17142;BMP180;32805;53.556;9.944;2022-08-01T02:12:56;101031.00;;;17.70
17142;BMP180;32805;53.556;9.944;2022-08-01T02:15:27;101029.00;;;17.70
17142;BMP180;32805;53.556;9.944;2022-08-01T02:17:56;101032.00;;;17.60
17142;BMP180;32805;53.556;9.944;2022-08-01T02:20:24;101035.00;;;17.60
17142;BMP180;32805;53.556;9.944;2022-08-01T02:22:53;101032.00;;;17.60
17142;BMP180;32805;53.556;9.944;2022-08-01T02:25:26;101029.00;;;17.60
17142;BMP180;32805;53.556;9.944;2022-08-01T02:27:58;101020.00;;;17.60
17142;BMP180;32805;53.556;9.944;2022-08-01T02:30:32;101041.00;;;17.70
17142;BMP180;32805;53.556;9.944;2022-08-01T02:33:03;101028.00;;;17.70
17142;BMP180;32805;53.556;9.944;2022-08-01T02:35:42;101037.00;;;17.60
17142;BMP180;32805;53.556;9.944;2022-08-01T02:38:32;101029.00;;;17.60
17142;BMP180;32805;53.556;9.944;2022-08-01T02:41:05;101034.00;;;17.60
17142;BMP180;32805;53.556;9.944;2022-08-01T02:43:36;101025.00;;;17.60
17142;BMP180;32805;53.556;9.944;2022-08-01T02:46:07;101022.00;;;17.70
17142;BMP180;32805;53.556;9.944;2022-08-01T02:48:38;101018.00;;;17.70
17142;BMP180;32805;53.556;9.944;2022-08-01T02:51:08;101033.00;;;17.80
17142;BMP180;32805;53.556;9.944;2022-08-01T02:53:37;101031.00;;;17.80
17142;BMP180;32805;53.556;9.944;2022-08-01T02:56:11;101039.00;;;17.80
17142;BMP180;32805;53.556;9.944;2022-08-01T02:58:40;101042.00;;;17.80
17142;BMP180;32805;53.556;9.944;2022-08-01T03:01:13;101041.00;;;17.80
17142;BMP180;32805;53.556;9.944;2022-08-01T03:03:45;101036.00;;;17.80
17142;BMP180;32805;53.556;9.944;2022-08-01T03:06:14;101045.00;;;17.70
17142;BMP180;32805;53.556;9.944;2022-08-01T03:08:44;101052.00;;;17.80
17142;BMP180;32805;53.556;9.944;2022-08-01T03:11:12;101038.00;;;17.80
17142;BMP180;32805;53.556;9.944;2022-08-01T03:13:41;101038.00;;;17.80
17142;BMP180;32805;53.556;9.944;2022-08-01T03:16:12;101036.00;;;17.80
17142;BMP180;32805;53.556;9.944;2022-08-01T03:18:41;101041.00;;;17.80
17142;BMP180;32805;53.556;9.944;2022-08-01T03:21:12;101042.00;;;17.80
17142;BMP180;32805;53.556;9.944;2022-08-01T03:23:41;101044.00;;;17.80
17142;BMP180;32805;53.556;9.944;2022-08-01T03:26:10;101049.00;;;17.80
17142;BMP180;32805;53.556;9.944;2022-08-01T03:28:40;101049.00;;;17.80
17142;BMP180;32805;53.556;9.944;2022-08-01T03:31:09;101053.00;;;17.80
17142;BMP180;32805;53.556;9.944;2022-08-01T03:33:39;101055.00;;;17.80
17142;BMP180;32805;53.556;9.944;2022-08-01T03:36:09;101049.00;;;17.90
17142;BMP180;32805;53.556;9.944;2022-08-01T03:38:39;101047.00;;;17.90
17142;BMP180;32805;53.556;9.944;2022-08-01T03:41:11;101062.00;;;17.90
17142;BMP180;32805;53.556;9.944;2022-08-01T03:43:42;101055.00;;;17.90
17142;BMP180;32805;53.556;9.944;2022-08-01T03:46:17;101051.00;;;17.90
17142;BMP180;32805;53.556;9.944;2022-08-01T03:48:48;101058.00;;;18.00
17142;BMP180;32805;53.556;9.944;2022-08-01T03:51:18;101068.00;;;18.00
17142;BMP180;32805;53.556;9.944;2022-08-01T03:53:49;101059.00;;;17.90
17142;BMP180;32805;53.556;9.944;2022-08-01T03:56:19;101070.00;;;17.90
17142;BMP180;32805;53.556;9.944;2022-08-01T03:58:49;101077.00;;;17.80
17142;BMP180;32805;53.556;9.944;2022-08-01T04:01:17;101063.00;;;17.80
17142;BMP180;32805;53.556;9.944;2022-08-01T04:03:45;101074.00;;;17.80
17142;BMP180;32805;53.556;9.944;2022-08-01T04:06:14;101078.00;;;17.80
17142;BMP180;32805;53.556;9.944;2022-08-01T04:08:43;101085.00;;;17.80
17142;BMP180;32805;53.556;9.944;2022-08-01T04:11:23;101081.00;;;17.90
17142;BMP180;32805;53.556;9.944;2022-08-01T04:13:52;101085.00;;;17.90
17142;BMP180;32805;53.556;9.944;2022-08-01T04:16:21;101089.00;;;17.90
17142;BMP180;32805;53.556;9.944;2022-08-01T04:18:49;101087.00;;;17.90
17142;BMP180;32805;53.556;9.944;2022-08-01T04:21:22;101081.00;;;17.90
17142;BMP180;32805;53.556;9.944;2022-08-01T04:23:53;101087.00;;;17.80
17142;BMP180;32805;53.556;9.944;2022-08-01T04:26:21;101088.00;;;17.80
17142;BMP180;32805;53.556;9.944;2022-08-01T04:28:52;101101.00;;;17.80
17142;BMP180;32805;53.556;9.944;2022-08-01T04:31:22;101104.00;;;17.70
17142;BMP180;32805;53.556;9.944;2022-08-01T04:33:53;101113.00;;;17.80
17142;BMP180;32805;53.556;9.944;2022-08-01T04:36:25;101101.00;;;17.80
17142;BMP180;32805;53.556;9.944;2022-08-01T04:38:58;101111.00;;;17.70
17142;BMP180;32805;53.556;9.944;2022-08-01T04:41:27;101118.00;;;17.70
17142;BMP180;32805;53.556;9.944;2022-08-01T04:43:57;101113.00;;;17.60
17142;BMP180;32805;53.556;9.944;2022-08-01T04:46:27;101120.00;;;17.60
17142;BMP180;32805;53.556;9.944;2022-08-01T04:48:56;101119.00;;;17.50
17142;BMP180;32805;53.556;9.944;2022-08-01T04:51:25;101125.00;;;17.60
17142;BMP180;32805;53.556;9.944;2022-08-01T04:53:53;101131.00;;;17.50
17142;BMP180;32805;53.556;9.944;2022-08-01T04:56:21;101126.00;;;17.50
17142;BMP180;32805;53.556;9.944;2022-08-01T04:58:48;101132.00;;;17.40
17142;BMP180;32805;53.556;9.944;2022-08-01T05:01:48;101136.00;;;17.30
17142;BMP180;32805;53.556;9.944;2022-08-01T05:04:17;101126.00;;;17.40
17142;BMP180;32805;53.556;9.944;2022-08-01T05:06:46;101134.00;;;17.30
17142;BMP180;32805;53.556;9.944;2022-08-01T05:09:14;101130.00;;;17.40
17142;BMP180;32805;53.556;9.944;2022-08-01T05:11:42;101136.00;;;17.20
17142;BMP180;32805;53.556;9.944;2022-08-01T05:14:09;101130.00;;;17.30
17142;BMP180;32805;53.556;9.944;2022-08-01T05:16:37;101141.00;;;17.30
17142;BMP180;32805;53.556;9.944;2022-08-01T05:19:05;101142.00;;;17.20
17142;BMP180;32805;53.556;9.944;2022-08-01T05:21:34;101141.00;;;17.20
17142;BMP180;32805;53.556;9.944;2022-08-01T05:24:04;101145.00;;;17.10
17142;BMP180;32805;53.556;9.944;2022-08-01T05:26:31;101153.00;;;17.10
17142;BMP180;32805;53.556;9.944;2022-08-01T05:29:02;101146.00;;;17.20
17142;BMP180;32805;53.556;9.944;2022-08-01T05:31:30;101157.00;;;17.30
17142;BMP180;32805;53.556;9.944;2022-08-01T05:34:00;101160.00;;;17.30
17142;BMP180;32805;53.556;9.944;2022-08-01T05:36:28;101163.00;;;17.30
17142;BMP180;32805;53.556;9.944;2022-08-01T05:38:56;101151.00;;;17.30
17142;BMP180;32805;53.556;9.944;2022-08-01T05:41:25;101165.00;;;17.30
17142;BMP180;32805;53.556;9.944;2022-08-01T05:43:52;101150.00;;;17.20
17142;BMP180;32805;53.556;9.944;2022-08-01T05:46:20;101166.00;;;17.30
17142;BMP180;32805;53.556;9.944;2022-08-01T05:48:51;101151.00;;;17.30
17142;BMP180;32805;53.556;9.944;2022-08-01T05:51:19;101173.00;;;17.30
17142;BMP180;32805;53.556;9.944;2022-08-01T05:53:47;101174.00;;;17.30
17142;BMP180;32805;53.556;9.944;2022-08-01T05:56:14;101175.00;;;17.20
17142;BMP180;32805;53.556;9.944;2022-08-01T05:58:43;101179.00;;;17.20
17142;BMP180;32805;53.556;9.944;2022-08-01T06:01:11;101179.00;;;17.30
17142;BMP180;32805;53.556;9.944;2022-08-01T06:03:39;101175.00;;;17.30
17142;BMP180;32805;53.556;9.944;2022-08-01T06:06:07;101182.00;;;17.30
17142;BMP180;32805;53.556;9.944;2022-08-01T06:08:34;101167.00;;;17.40
17142;BMP180;32805;53.556;9.944;2022-08-01T06:11:03;101187.00;;;17.40
17142;BMP180;32805;53.556;9.944;2022-08-01T06:13:31;101183.00;;;17.50
17142;BMP180;32805;53.556;9.944;2022-08-01T06:16:13;101190.00;;;17.60
17142;BMP180;32805;53.556;9.944;2022-08-01T06:18:41;101182.00;;;17.60
17142;BMP180;32805;53.556;9.944;2022-08-01T06:21:09;101190.00;;;17.60
17142;BMP180;32805;53.556;9.944;2022-08-01T06:23:36;101189.00;;;17.60
17142;BMP180;32805;53.556;9.944;2022-08-01T06:26:04;101186.00;;;17.60
17142;BMP180;32805;53.556;9.944;2022-08-01T06:28:32;101199.00;;;17.70
17142;BMP180;32805;53.556;9.944;2022-08-01T06:31:00;101196.00;;;17.60
17142;BMP180;32805;53.556;9.944;2022-08-01T06:33:29;101206.00;;;17.50
17142;BMP180;32805;53.556;9.944;2022-08-01T06:35:56;101208.00;;;17.60
17142;BMP180;32805;53.556;9.944;2022-08-01T06:38:24;101211.00;;;17.60
17142;BMP180;32805;53.556;9.944;2022-08-01T06:40:52;101205.00;;;17.70
17142;BMP180;32805;53.556;9.944;2022-08-01T06:43:20;101211.00;;;17.70
17142;BMP180;32805;53.556;9.944;2022-08-01T06:45:48;101209.00;;;17.70
17142;BMP180;32805;53.556;9.944;2022-08-01T06:48:16;101220.00;;;17.60
17142;BMP180;32805;53.556;9.944;2022-08-01T06:50:45;101218.00;;;17.70
17142;BMP180;32805;53.556;9.944;2022-08-01T06:53:13;101208.00;;;17.70
17142;BMP180;32805;53.556;9.944;2022-08-01T06:55:40;101210.00;;;17.70
17142;BMP180;32805;53.556;9.944;2022-08-01T06:58:08;101218.00;;;17.80
17142;BMP180;32805;53.556;9.944;2022-08-01T07:00:36;101222.00;;;17.90
17142;BMP180;32805;53.556;9.944;2022-08-01T07:03:03;101226.00;;;17.80
17142;BMP180;32805;53.556;9.944;2022-08-01T07:05:31;101222.00;;;18.00
17142;BMP180;32805;53.556;9.944;2022-08-01T07:08:00;101220.00;;;18.00
17142;BMP180;32805;53.556;9.944;2022-08-01T07:10:28;101235.00;;;18.00
17142;BMP180;32805;53.556;9.944;2022-08-01T07:12:56;101239.00;;;17.80
17142;BMP180;32805;53.556;9.944;2022-08-01T07:15:23;101236.00;;;17.80
17142;BMP180;32805;53.556;9.944;2022-08-01T07:17:53;101233.00;;;17.90
17142;BMP180;32805;53.556;9.944;2022-08-01T07:20:20;101241.00;;;17.80
17142;BMP180;32805;53.556;9.944;2022-08-01T07:22:48;101237.00;;;17.90
17142;BMP180;32805;53.556;9.944;2022-08-01T07:25:17;101250.00;;;17.90
17142;BMP180;32805;53.556;9.944;2022-08-01T07:27:45;101251.00;;;17.90
17142;BMP180;32805;53.556;9.944;2022-08-01T07:30:13;101237.00;;;17.70
17142;BMP180;32805;53.556;9.944;2022-08-01T07:32:41;101254.00;;;17.80
17142;BMP180;32805;53.556;9.944;2022-08-01T07:35:09;101248.00;;;17.90
17142;BMP180;32805;53.556;9.944;2022-08-01T07:37:36;101253.00;;;17.90
17142;BMP180;32805;53.556;9.944;2022-08-01T07:40:15;101249.00;;;17.90
17142;BMP180;32805;53.556;9.944;2022-08-01T07:42:44;101264.00;;;18.10
17142;BMP180;32805;53.556;9.944;2022-08-01T07:45:13;101259.00;;;18.20
17142;BMP180;32805;53.556;9.944;2022-08-01T07:47:41;101262.00;;;18.30
17142;BMP180;32805;53.556;9.944;2022-08-01T07:50:09;101271.00;;;18.20
17142;BMP180;32805;53.556;9.944;2022-08-01T07:52:38;101272.00;;;18.20
17142;BMP180;32805;53.556;9.944;2022-08-01T07:55:07;101274.00;;;18.40
17142;BMP180;32805;53.556;9.944;2022-08-01T07:57:35;101277.00;;;18.10
17142;BMP180;32805;53.556;9.944;2022-08-01T08:00:05;101288.00;;;18.30
17142;BMP180;32805;53.556;9.944;2022-08-01T08:02:35;101292.00;;;18.30
17142;BMP180;32805;53.556;9.944;2022-08-01T08:05:03;101289.00;;;18.30
17142;BMP180;32805;53.556;9.944;2022-08-01T08:07:31;101291.00;;;18.40
17142;BMP180;32805;53.556;9.944;2022-08-01T08:09:59;101287.00;;;18.40
17142;BMP180;32805;53.556;9.944;2022-08-01T08:12:27;101299.00;;;18.20
17142;BMP180;32805;53.556;9.944;2022-08-01T08:14:56;101298.00;;;18.30
17142;BMP180;32805;53.556;9.944;2022-08-01T08:17:27;101306.00;;;18.30
17142;BMP180;32805;53.556;9.944;2022-08-01T08:20:03;101304.00;;;18.00
17142;BMP180;32805;53.556;9.944;2022-08-01T08:22:36;101306.00;;;18.10
17142;BMP180;32805;53.556;9.944;2022-08-01T08:25:05;101307.00;;;18.00
17142;BMP180;32805;53.556;9.944;2022-08-01T08:27:33;101318.00;;;17.90
17142;BMP180;32805;53.556;9.944;2022-08-01T08:30:04;101315.00;;;17.90
17142;BMP180;32805;53.556;9.944;2022-08-01T08:32:35;101320.00;;;18.00
17142;BMP180;32805;53.556;9.944;2022-08-01T08:35:04;101330.00;;;17.80
17142;BMP180;32805;53.556;9.944;2022-08-01T08:37:33;101321.00;;;17.80
17142;BMP180;32805;53.556;9.944;2022-08-01T08:40:09;101317.00;;;17.90
17142;BMP180;32805;53.556;9.944;2022-08-01T08:42:39;101319.00;;;18.00
17142;BMP180;32805;53.556;9.944;2022-08-01T08:45:08;101322.00;;;18.20
17142;BMP180;32805;53.556;9.944;2022-08-01T08:47:39;101326.00;;;18.20
17142;BMP180;32805;53.556;9.944;2022-08-01T08:50:09;101324.00;;;18.30
17142;BMP180;32805;53.556;9.944;2022-08-01T08:52:38;101321.00;;;18.30
17142;BMP180;32805;53.556;9.944;2022-08-01T08:55:08;101326.00;;;18.30
17142;BMP180;32805;53.556;9.944;2022-08-01T08:57:39;101331.00;;;18.30
17142;BMP180;32805;53.556;9.944;2022-08-01T09:00:09;101334.00;;;18.20
17142;BMP180;32805;53.556;9.944;2022-08-01T09:02:42;101334.00;;;18.30
17142;BMP180;32805;53.556;9.944;2022-08-01T09:05:11;101343.00;;;18.40
17142;BMP180;32805;53.556;9.944;2022-08-01T09:07:45;101336.00;;;18.40
17142;BMP180;32805;53.556;9.944;2022-08-01T09:10:12;101349.00;;;18.60
17142;BMP180;32805;53.556;9.944;2022-08-01T09:13:03;101347.00;;;18.80
17142;BMP180;32805;53.556;9.944;2022-08-01T09:15:42;101360.00;;;18.80
17142;BMP180;32805;53.556;9.944;2022-08-01T09:18:30;101352.00;;;18.70
17142;BMP180;32805;53.556;9.944;2022-08-01T09:21:09;101342.00;;;18.80
17142;BMP180;32805;53.556;9.944;2022-08-01T09:23:39;101347.00;;;18.80
17142;BMP180;32805;53.556;9.944;2022-08-01T09:26:21;101359.00;;;19.00
17142;BMP180;32805;53.556;9.944;2022-08-01T09:28:52;101359.00;;;19.10
17142;BMP180;32805;53.556;9.944;2022-08-01T09:31:20;101363.00;;;19.50
17142;BMP180;32805;53.556;9.944;2022-08-01T09:33:51;101363.00;;;19.50
17142;BMP180;32805;53.556;9.944;2022-08-01T09:36:21;101370.00;;;19.40
17142;BMP180;32805;53.556;9.944;2022-08-01T09:38:50;101371.00;;;19.50
17142;BMP180;32805;53.556;9.944;2022-08-01T09:41:28;101376.00;;;19.40
17142;BMP180;32805;53.556;9.944;2022-08-01T09:44:05;101380.00;;;19.30
17142;BMP180;32805;53.556;9.944;2022-08-01T09:46:34;101379.00;;;19.40
17142;BMP180;32805;53.556;9.944;2022-08-01T09:49:06;101387.00;;;19.60
17142;BMP180;32805;53.556;9.944;2022-08-01T09:51:37;101388.00;;;19.70
17142;BMP180;32805;53.556;9.944;2022-08-01T09:54:31;101381.00;;;19.70
17142;BMP180;32805;53.556;9.944;2022-08-01T09:57:10;101388.00;;;19.70
17142;BMP180;32805;53.556;9.944;2022-08-01T09:59:39;101381.00;;;19.50
17142;BMP180;32805;53.556;9.944;2022-08-01T10:02:30;101392.00;;;19.60
17142;BMP180;32805;53.556;9.944;2022-08-01T10:05:03;101388.00;;;19.50
17142;BMP180;32805;53.556;9.944;2022-08-01T10:07:34;101395.00;;;19.60
17142;BMP180;32805;53.556;9.944;2022-08-01T10:10:11;101382.00;;;19.70
17142;BMP180;32805;53.556;9.944;2022-08-01T10:12:41;101389.00;;;19.70
17142;BMP180;32805;53.556;9.944;2022-08-01T10:15:14;101394.00;;;19.60
17142;BMP180;32805;53.556;9.944;2022-08-01T10:17:46;101390.00;;;19.80
17142;BMP180;32805;53.556;9.944;2022-08-01T10:20:24;101402.00;;;19.80
17142;BMP180;32805;53.556;9.944;2022-08-01T10:22:59;101396.00;;;20.00
17142;BMP180;32805;53.556;9.944;2022-08-01T10:25:34;101406.00;;;20.00
17142;BMP180;32805;53.556;9.944;2022-08-01T10:28:13;101402.00;;;20.00
17142;BMP180;32805;53.556;9.944;2022-08-01T10:30:45;101393.00;;;20.10
17142;BMP180;32805;53.556;9.944;2022-08-01T10:33:15;101398.00;;;20.10
17142;BMP180;32805;53.556;9.944;2022-08-01T10:36:05;101413.00;;;20.00
17142;BMP180;32805;53.556;9.944;2022-08-01T10:38:34;101395.00;;;20.10
17142;BMP180;32805;53.556;9.944;2022-08-01T10:41:03;101401.00;;;20.20
17142;BMP180;32805;53.556;9.944;2022-08-01T10:43:34;101415.00;;;20.20
17142;BMP180;32805;53.556;9.944;2022-08-01T10:46:03;101406.00;;;20.20
17142;BMP180;32805;53.556;9.944;2022-08-01T10:48:39;101413.00;;;20.30
17142;BMP180;32805;53.556;9.944;2022-08-01T10:51:10;101407.00;;;20.20
17142;BMP180;32805;53.556;9.944;2022-08-01T10:53:48;101412.00;;;20.20
17142;BMP180;32805;53.556;9.944;2022-08-01T10:56:20;101417.00;;;20.20
17142;BMP180;32805;53.556;9.944;2022-08-01T10:59:01;101412.00;;;20.30
17142;BMP180;32805;53.556;9.944;2022-08-01T11:01:37;101409.00;;;20.30
17142;BMP180;32805;53.556;9.944;2022-08-01T11:04:12;101407.00;;;20.30
17142;BMP180;32805;53.556;9.944;2022-08-01T11:06:54;101405.00;;;20.50
17142;BMP180;32805;53.556;9.944;2022-08-01T11:09:37;101414.00;;;20.40
17142;BMP180;32805;53.556;9.944;2022-08-01T11:12:08;101423.00;;;20.30
17142;BMP180;32805;53.556;9.944;2022-08-01T11:15:16;101419.00;;;20.50
17142;BMP180;32805;53.556;9.944;2022-08-01T11:17:57;101412.00;;;20.40
17142;BMP180;32805;53.556;9.944;2022-08-01T11:20:27;101420.00;;;20.40
17142;BMP180;32805;53.556;9.944;2022-08-01T11:23:25;101414.00;;;20.40
17142;BMP180;32805;53.556;9.944;2022-08-01T11:26:14;101428.00;;;20.50
17142;BMP180;32805;53.556;9.944;2022-08-01T11:28:44;101425.00;;;20.50
17142;BMP180;32805;53.556;9.944;2022-08-01T11:31:33;101427.00;;;20.50
17142;BMP180;32805;53.556;9.944;2022-08-01T11:34:03;101433.00;;;20.60
17142;BMP180;32805;53.556;9.944;2022-08-01T11:36:31;101437.00;;;20.60
17142;BMP180;32805;53.556;9.944;2022-08-01T11:39:20;101430.00;;;20.60
17142;BMP180;32805;53.556;9.944;2022-08-01T11:41:48;101424.00;;;20.60
17142;BMP180;32805;53.556;9.944;2022-08-01T11:44:19;101444.00;;;20.60
17142;BMP180;32805;53.556;9.944;2022-08-01T11:49:56;101416.00;;;20.70
17142;BMP180;32805;53.556;9.944;2022-08-01T11:52:27;101426.00;;;20.70
17142;BMP180;32805;53.556;9.944;2022-08-01T11:55:04;101430.00;;;20.70
17142;BMP180;32805;53.556;9.944;2022-08-01T11:57:37;101437.00;;;20.90
17142;BMP180;32805;53.556;9.944;2022-08-01T12:00:11;101429.00;;;20.90
17142;BMP180;32805;53.556;9.944;2022-08-01T12:02:43;101445.00;;;20.90
17142;BMP180;32805;53.556;9.944;2022-08-01T12:05:13;101432.00;;;20.90
17142;BMP180;32805;53.556;9.944;2022-08-01T12:07:44;101446.00;;;20.70
17142;BMP180;32805;53.556;9.944;2022-08-01T12:10:15;101440.00;;;20.70
17142;BMP180;32805;53.556;9.944;2022-08-01T12:12:45;101449.00;;;20.70
17142;BMP180;32805;53.556;9.944;2022-08-01T12:15:13;101450.00;;;20.80
17142;BMP180;32805;53.556;9.944;2022-08-01T12:17:43;101455.00;;;20.80
17142;BMP180;32805;53.556;9.944;2022-08-01T12:20:27;101458.00;;;20.80
17142;BMP180;32805;53.556;9.944;2022-08-01T12:22:59;101460.00;;;20.70
17142;BMP180;32805;53.556;9.944;2022-08-01T12:25:28;101462.00;;;20.70
17142;BMP180;32805;53.556;9.944;2022-08-01T12:27:59;101464.00;;;20.70
17142;BMP180;32805;53.556;9.944;2022-08-01T12:30:29;101453.00;;;20.70
17142;BMP180;32805;53.556;9.944;2022-08-01T12:32:57;101472.00;;;20.80
17142;BMP180;32805;53.556;9.944;2022-08-01T12:35:27;101467.00;;;20.70
17142;BMP180;32805;53.556;9.944;2022-08-01T12:37:57;101463.00;;;20.70
17142;BMP180;32805;53.556;9.944;2022-08-01T12:40:26;101455.00;;;20.90
17142;BMP180;32805;53.556;9.944;2022-08-01T12:42:56;101466.00;;;21.10
17142;BMP180;32805;53.556;9.944;2022-08-01T12:45:26;101462.00;;;21.10
17142;BMP180;32805;53.556;9.944;2022-08-01T12:47:55;101455.00;;;21.10
17142;BMP180;32805;53.556;9.944;2022-08-01T12:50:25;101459.00;;;21.10
17142;BMP180;32805;53.556;9.944;2022-08-01T12:52:55;101453.00;;;21.00
17142;BMP180;32805;53.556;9.944;2022-08-01T12:55:24;101466.00;;;21.00
17142;BMP180;32805;53.556;9.944;2022-08-01T12:58:06;101460.00;;;21.10
17142;BMP180;32805;53.556;9.944;2022-08-01T13:00:42;101459.00;;;21.00
17142;BMP180;32805;53.556;9.944;2022-08-01T13:03:12;101455.00;;;20.80
17142;BMP180;32805;53.556;9.944;2022-08-01T13:05:42;101461.00;;;20.70
17142;BMP180;32805;53.556;9.944;2022-08-01T13:08:11;101465.00;;;20.70
17142;BMP180;32805;53.556;9.944;2022-08-01T13:10:40;101463.00;;;20.70
17142;BMP180;32805;53.556;9.944;2022-08-01T13:13:09;101446.00;;;20.80
17142;BMP180;32805;53.556;9.944;2022-08-01T13:16:03;101459.00;;;20.50
17142;BMP180;32805;53.556;9.944;2022-08-01T13:18:33;101466.00;;;20.60
17142;BMP180;32805;53.556;9.944;2022-08-01T13:21:08;101460.00;;;20.40
17142;BMP180;32805;53.556;9.944;2022-08-01T13:23:37;101449.00;;;20.60
17142;BMP180;32805;53.556;9.944;2022-08-01T13:26:37;101456.00;;;20.70
17142;BMP180;32805;53.556;9.944;2022-08-01T13:29:08;101461.00;;;20.70
17142;BMP180;32805;53.556;9.944;2022-08-01T13:31:43;101459.00;;;20.70
17142;BMP180;32805;53.556;9.944;2022-08-01T13:34:11;101456.00;;;20.70
17142;BMP180;32805;53.556;9.944;2022-08-01T13:36:40;101456.00;;;20.90
17142;BMP180;32805;53.556;9.944;2022-08-01T13:39:14;101453.00;;;20.90
17142;BMP180;32805;53.556;9.944;2022-08-01T13:42:00;101459.00;;;21.00
17142;BMP180;32805;53.556;9.944;2022-08-01T13:44:31;101464.00;;;21.10
17142;BMP180;32805;53.556;9.944;2022-08-01T13:46:59;101457.00;;;20.90
17142;BMP180;32805;53.556;9.944;2022-08-01T13:49:37;101468.00;;;20.90
17142;BMP180;32805;53.556;9.944;2022-08-01T13:52:06;101458.00;;;20.80
17142;BMP180;32805;53.556;9.944;2022-08-01T13:54:34;101472.00;;;21.00
17142;BMP180;32805;53.556;9.944;2022-08-01T13:57:03;101454.00;;;21.30
17142;BMP180;32805;53.556;9.944;2022-08-01T13:59:32;101465.00;;;21.30
17142;BMP180;32805;53.556;9.944;2022-08-01T14:02:00;101469.00;;;21.10
17142;BMP180;32805;53.556;9.944;2022-08-01T14:04:27;101467.00;;;20.80
17142;BMP180;32805;53.556;9.944;2022-08-01T14:06:55;101474.00;;;20.70
17142;BMP180;32805;53.556;9.944;2022-08-01T14:09:24;101469.00;;;20.70
17142;BMP180;32805;53.556;9.944;2022-08-01T14:11:58;101484.00;;;20.80
17142;BMP180;32805;53.556;9.944;2022-08-01T14:14:25;101487.00;;;20.90
17142;BMP180;32805;53.556;9.944;2022-08-01T14:16:55;101493.00;;;20.90
17142;BMP180;32805;53.556;9.944;2022-08-01T14:19:24;101485.00;;;20.70
17142;BMP180;32805;53.556;9.944;2022-08-01T14:22:05;101492.00;;;21.10
17142;BMP180;32805;53.556;9.944;2022-08-01T14:24:33;101497.00;;;21.10
17142;BMP180;32805;53.556;9.944;2022-08-01T14:27:04;101495.00;;;20.70